sensor_id;sensor_type;location;lat;lon;timestamp;P1;durP1;ratioP1;P2;durP2;ratioP2
18689;SDS011;9782;52.930;15.562;2023-03-08T00:00:10;11.63;;;6.97;;
18689;SDS011;9782;52.930;15.562;2023-03-08T00:02:39;12.43;;;7.03;;
18689;SDS011;9782;52.930;15.562;2023-03-08T00:05:06;17.53;;;7.47;;
18689;SDS011;9782;52.930;15.562;2023-03-08T00:07:34;18.70;;;8.63;;
18689;SDS011;9782;52.930;15.562;2023-03-08T00:10:01;15.83;;;8.10;;
18689;SDS011;9782;52.930;15.562;2023-03-08T00:12:27;16.67;;;8.70;;
18689;SDS011;9782;52.930;15.562;2023-03-08T00:14:56;16.27;;;8.93;;
18689;SDS011;9782;52.930;15.562;2023-03-08T00:17:23;17.13;;;8.37;;
18689;SDS011;9782;52.930;15.562;2023-03-08T00:19:50;16.83;;;8.03;;
18689;SDS011;9782;52.930;15.562;2023-03-08T00:22:17;16.47;;;8.00;;
18689;SDS011;9782;52.930;15.562;2023-03-08T00:24:44;14.87;;;6.10;;
18689;SDS011;9782;52.930;15.562;2023-03-08T00:27:11;18.43;;;10.27;;
18689;SDS011;9782;52.930;15.562;2023-03-08T00:29:38;22.63;;;11.37;;
18689;SDS011;9782;52.930;15.562;2023-03-08T00:32:06;27.07;;;13.63;;
18689;SDS011;9782;52.930;15.562;2023-03-08T00:34:33;20.07;;;11.97;;
18689;SDS011;9782;52.930;15.562;2023-03-08T00:36:59;27.97;;;12.50;;
18689;SDS011;9782;52.930;15.562;2023-03-08T00:39:26;21.47;;;10.33;;
18689;SDS011;9782;52.930;15.562;2023-03-08T00:41:53;18.57;;;9.90;;
18689;SDS011;9782;52.930;15.562;2023-03-08T00:44:20;15.17;;;8.73;;
18689;SDS011;9782;52.930;15.562;2023-03-08T00:46:47;17.47;;;7.93;;
18689;SDS011;9782;52.930;15.562;2023-03-08T00:49:15;15.93;;;9.10;;
18689;SDS011;9782;52.930;15.562;2023-03-08T00:51:42;15.10;;;8.70;;
18689;SDS011;9782;52.930;15.562;2023-03-08T00:54:08;14.77;;;7.43;;
18689;SDS011;9782;52.930;15.562;2023-03-08T00:56:35;16.43;;;7.60;;
18689;SDS011;9782;52.930;15.562;2023-03-08T00:59:02;15.63;;;7.10;;
18689;SDS011;9782;52.930;15.562;2023-03-08T01:01:29;12.53;;;6.47;;
18689;SDS011;9782;52.930;15.562;2023-03-08T01:03:56;11.87;;;6.37;;
18689;SDS011;9782;52.930;15.562;2023-03-08T01:06:24;14.53;;;7.27;;
18689;SDS011;9782;52.930;15.562;2023-03-08T01:08:52;11.63;;;5.90;;
18689;SDS011;9782;52.930;15.562;2023-03-08T01:11:19;11.90;;;7.23;;
18689;SDS011;9782;52.930;15.562;2023-03-08T01:13:48;13.97;;;6.80;;
18689;SDS011;9782;52.930;15.562;2023-03-08T01:16:16;14.17;;;6.13;;
18689;SDS011;9782;52.930;15.562;2023-03-08T01:18:44;11.73;;;6.23;;
18689;SDS011;9782;52.930;15.562;2023-03-08T01:21:10;10.73;;;5.93;;
18689;SDS011;9782;52.930;15.562;2023-03-08T01:23:39;14.03;;;6.30;;
18689;SDS011;9782;52.930;15.562;2023-03-08T01:26:06;14.50;;;6.53;;
18689;SDS011;9782;52.930;15.562;2023-03-08T01:28:35;12.83;;;6.10;;
18689;SDS011;9782;52.930;15.562;2023-03-08T01:31:03;10.77;;;5.50;;
18689;SDS011;9782;52.930;15.562;2023-03-08T01:33:31;10.57;;;5.83;;
18689;SDS011;9782;52.930;15.562;2023-03-08T01:35:58;11.70;;;6.17;;
18689;SDS011;9782;52.930;15.562;2023-03-08T01:38:25;9.50;;;5.37;;
18689;SDS011;9782;52.930;15.562;2023-03-08T01:40:57;11.63;;;6.60;;
18689;SDS011;9782;52.930;15.562;2023-03-08T01:43:25;13.10;;;6.17;;
18689;SDS011;9782;52.930;15.562;2023-03-08T01:48:44;9.70;;;5.80;;
18689;SDS011;9782;52.930;15.562;2023-03-08T01:51:14;10.30;;;5.67;;
18689;SDS011;9782;52.930;15.562;2023-03-08T01:53:45;13.77;;;6.63;;
18689;SDS011;9782;52.930;15.562;2023-03-08T01:56:14;12.53;;;6.63;;
18689;SDS011;9782;52.930;15.562;2023-03-08T01:58:44;12.80;;;7.10;;
18689;SDS011;9782;52.930;15.562;2023-03-08T02:01:13;12.60;;;6.50;;
18689;SDS011;9782;52.930;15.562;2023-03-08T02:03:41;13.23;;;6.57;;
18689;SDS011;9782;52.930;15.562;2023-03-08T02:06:07;17.60;;;7.03;;
18689;SDS011;9782;52.930;15.562;2023-03-08T02:08:35;10.80;;;6.33;;
18689;SDS011;9782;52.930;15.562;2023-03-08T02:11:02;16.03;;;6.70;;
18689;SDS011;9782;52.930;15.562;2023-03-08T02:13:30;15.57;;;6.93;;
18689;SDS011;9782;52.930;15.562;2023-03-08T02:15:57;11.67;;;5.87;;
18689;SDS011;9782;52.930;15.562;2023-03-08T02:18:25;12.33;;;6.07;;
18689;SDS011;9782;52.930;15.562;2023-03-08T02:20:51;11.63;;;5.37;;
18689;SDS011;9782;52.930;15.562;2023-03-08T02:23:20;12.57;;;5.80;;
18689;SDS011;9782;52.930;15.562;2023-03-08T02:25:50;15.27;;;6.67;;
18689;SDS011;9782;52.930;15.562;2023-03-08T02:28:19;13.57;;;6.30;;
18689;SDS011;9782;52.930;15.562;2023-03-08T02:30:47;12.43;;;5.80;;
18689;SDS011;9782;52.930;15.562;2023-03-08T02:33:14;11.43;;;6.07;;
18689;SDS011;9782;52.930;15.562;2023-03-08T02:35:41;9.00;;;5.60;;
18689;SDS011;9782;52.930;15.562;2023-03-08T02:38:08;13.57;;;6.20;;
18689;SDS011;9782;52.930;15.562;2023-03-08T02:40:37;10.47;;;6.17;;
18689;SDS011;9782;52.930;15.562;2023-03-08T02:43:05;15.90;;;5.43;;
18689;SDS011;9782;52.930;15.562;2023-03-08T02:45:32;14.70;;;6.03;;
18689;SDS011;9782;52.930;15.562;2023-03-08T02:47:59;13.23;;;5.97;;
18689;SDS011;9782;52.930;15.562;2023-03-08T02:50:26;13.80;;;6.23;;
18689;SDS011;9782;52.930;15.562;2023-03-08T02:52:53;11.47;;;6.00;;
18689;SDS011;9782;52.930;15.562;2023-03-08T02:55:20;13.03;;;5.53;;
18689;SDS011;9782;52.930;15.562;2023-03-08T02:57:48;13.00;;;5.53;;
18689;SDS011;9782;52.930;15.562;2023-03-08T03:00:15;9.13;;;5.43;;
18689;SDS011;9782;52.930;15.562;2023-03-08T03:02:42;16.07;;;7.00;;
18689;SDS011;9782;52.930;15.562;2023-03-08T03:05:09;12.90;;;6.33;;
18689;SDS011;9782;52.930;15.562;2023-03-08T03:07:36;13.60;;;6.67;;
18689;SDS011;9782;52.930;15.562;2023-03-08T03:10:05;15.77;;;6.40;;
18689;SDS011;9782;52.930;15.562;2023-03-08T03:12:33;13.27;;;6.40;;
18689;SDS011;9782;52.930;15.562;2023-03-08T03:15:02;11.87;;;5.83;;
18689;SDS011;9782;52.930;15.562;2023-03-08T03:17:29;11.93;;;6.30;;
18689;SDS011;9782;52.930;15.562;2023-03-08T03:19:56;15.03;;;5.77;;
18689;SDS011;9782;52.930;15.562;2023-03-08T03:22:23;11.37;;;5.90;;
18689;SDS011;9782;52.930;15.562;2023-03-08T03:24:50;13.17;;;6.33;;
18689;SDS011;9782;52.930;15.562;2023-03-08T03:27:18;10.47;;;5.67;;
18689;SDS011;9782;52.930;15.562;2023-03-08T03:29:44;13.33;;;6.33;;
18689;SDS011;9782;52.930;15.562;2023-03-08T03:32:13;14.37;;;6.80;;
18689;SDS011;9782;52.930;15.562;2023-03-08T03:34:39;16.40;;;7.77;;
18689;SDS011;9782;52.930;15.562;2023-03-08T03:37:06;18.63;;;7.27;;
18689;SDS011;9782;52.930;15.562;2023-03-08T03:39:34;20.17;;;7.53;;
18689;SDS011;9782;52.930;15.562;2023-03-08T03:42:03;16.13;;;8.07;;
18689;SDS011;9782;52.930;15.562;2023-03-08T03:44:30;15.83;;;7.43;;
18689;SDS011;9782;52.930;15.562;2023-03-08T03:46:57;14.57;;;7.33;;
18689;SDS011;9782;52.930;15.562;2023-03-08T03:49:25;15.13;;;7.80;;
18689;SDS011;9782;52.930;15.562;2023-03-08T03:51:52;16.53;;;7.97;;
18689;SDS011;9782;52.930;15.562;2023-03-08T03:54:19;14.23;;;7.43;;
18689;SDS011;9782;52.930;15.562;2023-03-08T03:56:45;13.17;;;7.20;;
18689;SDS011;9782;52.930;15.562;2023-03-08T03:59:12;14.60;;;7.73;;
18689;SDS011;9782;52.930;15.562;2023-03-08T04:01:39;13.87;;;7.97;;
18689;SDS011;9782;52.930;15.562;2023-03-08T04:04:06;18.80;;;8.03;;
18689;SDS011;9782;52.930;15.562;2023-03-08T04:06:35;22.23;;;8.00;;
18689;SDS011;9782;52.930;15.562;2023-03-08T04:09:03;17.70;;;8.77;;
18689;SDS011;9782;52.930;15.562;2023-03-08T04:11:32;16.03;;;8.50;;
18689;SDS011;9782;52.930;15.562;2023-03-08T04:14:00;13.67;;;7.93;;
18689;SDS011;9782;52.930;15.562;2023-03-08T04:16:27;18.10;;;7.60;;
18689;SDS011;9782;52.930;15.562;2023-03-08T04:18:56;21.67;;;8.10;;
18689;SDS011;9782;52.930;15.562;2023-03-08T04:21:24;22.77;;;8.77;;
18689;SDS011;9782;52.930;15.562;2023-03-08T04:23:53;15.27;;;7.93;;
18689;SDS011;9782;52.930;15.562;2023-03-08T04:26:20;20.33;;;9.43;;
18689;SDS011;9782;52.930;15.562;2023-03-08T04:28:48;19.53;;;10.50;;
18689;SDS011;9782;52.930;15.562;2023-03-08T04:31:16;22.73;;;9.67;;
18689;SDS011;9782;52.930;15.562;2023-03-08T04:33:44;27.30;;;12.10;;
18689;SDS011;9782;52.930;15.562;2023-03-08T04:36:11;24.77;;;11.93;;
18689;SDS011;9782;52.930;15.562;2023-03-08T04:38:39;24.83;;;11.27;;
18689;SDS011;9782;52.930;15.562;2023-03-08T04:41:08;21.70;;;11.10;;
18689;SDS011;9782;52.930;15.562;2023-03-08T04:43:36;17.23;;;9.27;;
18689;SDS011;9782;52.930;15.562;2023-03-08T04:46:04;20.37;;;11.90;;
18689;SDS011;9782;52.930;15.562;2023-03-08T04:48:31;18.73;;;9.53;;
18689;SDS011;9782;52.930;15.562;2023-03-08T04:51:00;25.50;;;10.93;;
18689;SDS011;9782;52.930;15.562;2023-03-08T04:53:28;19.37;;;10.10;;
18689;SDS011;9782;52.930;15.562;2023-03-08T04:55:56;26.10;;;10.53;;
18689;SDS011;9782;52.930;15.562;2023-03-08T04:58:26;24.30;;;10.77;;
18689;SDS011;9782;52.930;15.562;2023-03-08T05:00:53;20.27;;;10.67;;
18689;SDS011;9782;52.930;15.562;2023-03-08T05:03:21;22.00;;;10.83;;
18689;SDS011;9782;52.930;15.562;2023-03-08T05:05:48;23.27;;;11.37;;
18689;SDS011;9782;52.930;15.562;2023-03-08T05:08:16;22.33;;;10.23;;
18689;SDS011;9782;52.930;15.562;2023-03-08T05:10:47;20.13;;;11.00;;
18689;SDS011;9782;52.930;15.562;2023-03-08T05:13:14;20.43;;;10.13;;
18689;SDS011;9782;52.930;15.562;2023-03-08T05:15:42;20.77;;;10.63;;
18689;SDS011;9782;52.930;15.562;2023-03-08T05:18:09;21.00;;;10.53;;
18689;SDS011;9782;52.930;15.562;2023-03-08T05:20:36;19.47;;;10.10;;
18689;SDS011;9782;52.930;15.562;2023-03-08T05:23:03;19.57;;;10.07;;
18689;SDS011;9782;52.930;15.562;2023-03-08T05:25:30;21.80;;;10.37;;
18689;SDS011;9782;52.930;15.562;2023-03-08T05:27:57;16.80;;;10.20;;
18689;SDS011;9782;52.930;15.562;2023-03-08T05:30:24;18.00;;;10.20;;
18689;SDS011;9782;52.930;15.562;2023-03-08T05:32:53;22.60;;;11.93;;
18689;SDS011;9782;52.930;15.562;2023-03-08T05:35:20;23.67;;;12.27;;
18689;SDS011;9782;52.930;15.562;2023-03-08T05:37:46;20.00;;;10.60;;
18689;SDS011;9782;52.930;15.562;2023-03-08T05:40:13;21.00;;;10.67;;
18689;SDS011;9782;52.930;15.562;2023-03-08T05:42:40;17.40;;;9.63;;
18689;SDS011;9782;52.930;15.562;2023-03-08T05:45:07;20.60;;;9.83;;
18689;SDS011;9782;52.930;15.562;2023-03-08T05:47:34;18.83;;;9.33;;
18689;SDS011;9782;52.930;15.562;2023-03-08T05:50:03;20.07;;;10.47;;
18689;SDS011;9782;52.930;15.562;2023-03-08T05:52:30;22.60;;;11.13;;
18689;SDS011;9782;52.930;15.562;2023-03-08T05:54:57;23.50;;;10.33;;
18689;SDS011;9782;52.930;15.562;2023-03-08T05:57:23;20.53;;;10.37;;
18689;SDS011;9782;52.930;15.562;2023-03-08T05:59:50;18.23;;;11.17;;
18689;SDS011;9782;52.930;15.562;2023-03-08T06:02:20;21.43;;;11.10;;
18689;SDS011;9782;52.930;15.562;2023-03-08T06:04:47;19.93;;;10.37;;
18689;SDS011;9782;52.930;15.562;2023-03-08T06:07:15;22.47;;;11.13;;
18689;SDS011;9782;52.930;15.562;2023-03-08T06:09:42;21.10;;;10.17;;
18689;SDS011;9782;52.930;15.562;2023-03-08T06:12:08;19.53;;;10.17;;
18689;SDS011;9782;52.930;15.562;2023-03-08T06:14:35;17.27;;;9.67;;
18689;SDS011;9782;52.930;15.562;2023-03-08T06:17:02;19.13;;;9.70;;
18689;SDS011;9782;52.930;15.562;2023-03-08T06:19:29;18.37;;;9.43;;
18689;SDS011;9782;52.930;15.562;2023-03-08T06:21:56;27.27;;;13.93;;
18689;SDS011;9782;52.930;15.562;2023-03-08T06:24:24;21.87;;;11.60;;
18689;SDS011;9782;52.930;15.562;2023-03-08T06:26:51;22.93;;;10.57;;
18689;SDS011;9782;52.930;15.562;2023-03-08T06:29:19;23.13;;;9.93;;
18689;SDS011;9782;52.930;15.562;2023-03-08T06:31:46;19.43;;;10.23;;
18689;SDS011;9782;52.930;15.562;2023-03-08T06:34:13;22.17;;;11.43;;
18689;SDS011;9782;52.930;15.562;2023-03-08T06:36:40;22.13;;;11.10;;
18689;SDS011;9782;52.930;15.562;2023-03-08T06:39:06;18.03;;;9.40;;
18689;SDS011;9782;52.930;15.562;2023-03-08T06:41:35;22.73;;;9.93;;
18689;SDS011;9782;52.930;15.562;2023-03-08T06:44:02;19.23;;;9.40;;
18689;SDS011;9782;52.930;15.562;2023-03-08T06:46:28;15.93;;;9.27;;
18689;SDS011;9782;52.930;15.562;2023-03-08T06:48:55;17.77;;;9.57;;
18689;SDS011;9782;52.930;15.562;2023-03-08T06:51:22;21.37;;;9.13;;
18689;SDS011;9782;52.930;15.562;2023-03-08T06:53:49;20.77;;;9.17;;
18689;SDS011;9782;52.930;15.562;2023-03-08T06:56:16;20.93;;;8.83;;
18689;SDS011;9782;52.930;15.562;2023-03-08T06:58:45;17.47;;;8.80;;
18689;SDS011;9782;52.930;15.562;2023-03-08T07:01:11;19.27;;;9.97;;
18689;SDS011;9782;52.930;15.562;2023-03-08T07:03:39;16.10;;;9.40;;
18689;SDS011;9782;52.930;15.562;2023-03-08T07:06:08;21.13;;;9.30;;
18689;SDS011;9782;52.930;15.562;2023-03-08T07:08:36;17.17;;;9.30;;
18689;SDS011;9782;52.930;15.562;2023-03-08T07:11:03;14.53;;;8.20;;
18689;SDS011;9782;52.930;15.562;2023-03-08T07:13:31;18.53;;;9.57;;
18689;SDS011;9782;52.930;15.562;2023-03-08T07:16:03;18.53;;;9.77;;
18689;SDS011;9782;52.930;15.562;2023-03-08T07:18:31;15.47;;;9.73;;
18689;SDS011;9782;52.930;15.562;2023-03-08T07:20:58;17.03;;;10.40;;
18689;SDS011;9782;52.930;15.562;2023-03-08T07:23:25;20.83;;;11.53;;
18689;SDS011;9782;52.930;15.562;2023-03-08T07:25:51;20.23;;;11.17;;
18689;SDS011;9782;52.930;15.562;2023-03-08T07:28:18;21.50;;;12.07;;
18689;SDS011;9782;52.930;15.562;2023-03-08T07:30:45;16.97;;;10.27;;
18689;SDS011;9782;52.930;15.562;2023-03-08T07:33:14;21.77;;;11.23;;
18689;SDS011;9782;52.930;15.562;2023-03-08T07:35:41;24.27;;;11.80;;
18689;SDS011;9782;52.930;15.562;2023-03-08T07:38:10;24.73;;;11.27;;
18689;SDS011;9782;52.930;15.562;2023-03-08T07:40:37;19.07;;;10.53;;
18689;SDS011;9782;52.930;15.562;2023-03-08T07:43:04;21.47;;;11.60;;
18689;SDS011;9782;52.930;15.562;2023-03-08T07:45:31;19.23;;;10.43;;
18689;SDS011;9782;52.930;15.562;2023-03-08T07:47:58;19.47;;;10.77;;
18689;SDS011;9782;52.930;15.562;2023-03-08T07:50:26;19.23;;;10.00;;
18689;SDS011;9782;52.930;15.562;2023-03-08T07:52:53;22.57;;;11.27;;
18689;SDS011;9782;52.930;15.562;2023-03-08T07:55:20;22.67;;;10.30;;
18689;SDS011;9782;52.930;15.562;2023-03-08T07:57:47;18.57;;;10.60;;
18689;SDS011;9782;52.930;15.562;2023-03-08T08:00:14;19.83;;;11.60;;
18689;SDS011;9782;52.930;15.562;2023-03-08T08:02:41;17.50;;;10.07;;
18689;SDS011;9782;52.930;15.562;2023-03-08T08:05:08;11.33;;;7.37;;
18689;SDS011;9782;52.930;15.562;2023-03-08T08:07:36;16.50;;;9.23;;
18689;SDS011;9782;52.930;15.562;2023-03-08T08:10:03;17.73;;;10.33;;
18689;SDS011;9782;52.930;15.562;2023-03-08T08:12:32;20.53;;;11.50;;
18689;SDS011;9782;52.930;15.562;2023-03-08T08:14:59;23.70;;;14.43;;
18689;SDS011;9782;52.930;15.562;2023-03-08T08:17:26;13.60;;;7.93;;
18689;SDS011;9782;52.930;15.562;2023-03-08T08:19:52;17.07;;;9.70;;
18689;SDS011;9782;52.930;15.562;2023-03-08T08:22:19;15.37;;;9.70;;
18689;SDS011;9782;52.930;15.562;2023-03-08T08:24:47;12.80;;;8.17;;
18689;SDS011;9782;52.930;15.562;2023-03-08T08:27:14;12.70;;;7.70;;
18689;SDS011;9782;52.930;15.562;2023-03-08T08:29:41;12.37;;;6.77;;
18689;SDS011;9782;52.930;15.562;2023-03-08T08:32:10;16.10;;;7.47;;
18689;SDS011;9782;52.930;15.562;2023-03-08T08:34:37;17.37;;;9.50;;
18689;SDS011;9782;52.930;15.562;2023-03-08T08:37:04;19.07;;;9.33;;
18689;SDS011;9782;52.930;15.562;2023-03-08T08:39:30;18.40;;;8.93;;
18689;SDS011;9782;52.930;15.562;2023-03-08T08:41:59;11.30;;;7.53;;
18689;SDS011;9782;52.930;15.562;2023-03-08T08:44:25;16.97;;;8.60;;
18689;SDS011;9782;52.930;15.562;2023-03-08T08:46:52;13.00;;;8.60;;
18689;SDS011;9782;52.930;15.562;2023-03-08T08:49:19;15.83;;;8.77;;
18689;SDS011;9782;52.930;15.562;2023-03-08T08:51:46;15.03;;;7.67;;
18689;SDS011;9782;52.930;15.562;2023-03-08T08:54:12;13.00;;;7.10;;
18689;SDS011;9782;52.930;15.562;2023-03-08T08:56:39;13.07;;;6.87;;
18689;SDS011;9782;52.930;15.562;2023-03-08T08:59:09;10.87;;;6.20;;
18689;SDS011;9782;52.930;15.562;2023-03-08T09:01:37;10.50;;;6.63;;
18689;SDS011;9782;52.930;15.562;2023-03-08T09:04:07;12.43;;;6.53;;
18689;SDS011;9782;52.930;15.562;2023-03-08T09:06:34;14.03;;;7.87;;
18689;SDS011;9782;52.930;15.562;2023-03-08T09:09:02;14.67;;;7.93;;
18689;SDS011;9782;52.930;15.562;2023-03-08T09:11:29;9.00;;;6.07;;
18689;SDS011;9782;52.930;15.562;2023-03-08T09:13:57;12.50;;;6.67;;
18689;SDS011;9782;52.930;15.562;2023-03-08T09:16:28;9.30;;;5.50;;
18689;SDS011;9782;52.930;15.562;2023-03-08T09:18:56;14.83;;;7.67;;
18689;SDS011;9782;52.930;15.562;2023-03-08T09:21:24;10.07;;;5.73;;
18689;SDS011;9782;52.930;15.562;2023-03-08T09:23:52;13.67;;;7.00;;
18689;SDS011;9782;52.930;15.562;2023-03-08T09:26:19;11.37;;;5.73;;
18689;SDS011;9782;52.930;15.562;2023-03-08T09:28:46;9.93;;;5.60;;
18689;SDS011;9782;52.930;15.562;2023-03-08T09:31:14;12.47;;;6.00;;
18689;SDS011;9782;52.930;15.562;2023-03-08T09:33:43;11.37;;;5.40;;
18689;SDS011;9782;52.930;15.562;2023-03-08T09:36:12;12.10;;;5.60;;
18689;SDS011;9782;52.930;15.562;2023-03-08T09:38:39;8.90;;;5.20;;
18689;SDS011;9782;52.930;15.562;2023-03-08T09:41:11;7.43;;;4.17;;
18689;SDS011;9782;52.930;15.562;2023-03-08T09:44:15;8.27;;;4.70;;
18689;SDS011;9782;52.930;15.562;2023-03-08T09:46:52;10.07;;;5.20;;
18689;SDS011;9782;52.930;15.562;2023-03-08T09:49:26;10.63;;;6.23;;
18689;SDS011;9782;52.930;15.562;2023-03-08T09:51:56;11.17;;;5.03;;
18689;SDS011;9782;52.930;15.562;2023-03-08T09:54:32;10.40;;;5.07;;
18689;SDS011;9782;52.930;15.562;2023-03-08T09:57:02;7.57;;;4.80;;
18689;SDS011;9782;52.930;15.562;2023-03-08T09:59:36;14.70;;;7.40;;
18689;SDS011;9782;52.930;15.562;2023-03-08T10:02:13;11.70;;;6.57;;
18689;SDS011;9782;52.930;15.562;2023-03-08T10:04:52;12.80;;;6.10;;
18689;SDS011;9782;52.930;15.562;2023-03-08T10:07:28;13.90;;;7.53;;
18689;SDS011;9782;52.930;15.562;2023-03-08T10:10:02;19.50;;;8.93;;
18689;SDS011;9782;52.930;15.562;2023-03-08T10:12:42;15.73;;;8.10;;
18689;SDS011;9782;52.930;15.562;2023-03-08T10:15:18;16.10;;;8.27;;
18689;SDS011;9782;52.930;15.562;2023-03-08T10:17:48;18.43;;;9.53;;
18689;SDS011;9782;52.930;15.562;2023-03-08T10:20:22;19.83;;;8.97;;
18689;SDS011;9782;52.930;15.562;2023-03-08T10:22:53;21.27;;;10.13;;
18689;SDS011;9782;52.930;15.562;2023-03-08T10:25:24;20.20;;;9.27;;
18689;SDS011;9782;52.930;15.562;2023-03-08T10:27:53;13.47;;;8.60;;
18689;SDS011;9782;52.930;15.562;2023-03-08T10:30:22;14.13;;;8.23;;
18689;SDS011;9782;52.930;15.562;2023-03-08T10:32:52;18.53;;;6.73;;
18689;SDS011;9782;52.930;15.562;2023-03-08T10:35:31;12.97;;;7.67;;
18689;SDS011;9782;52.930;15.562;2023-03-08T10:38:00;14.20;;;8.50;;
18689;SDS011;9782;52.930;15.562;2023-03-08T10:40:28;20.53;;;9.93;;
18689;SDS011;9782;52.930;15.562;2023-03-08T10:42:56;19.33;;;9.33;;
18689;SDS011;9782;52.930;15.562;2023-03-08T10:45:25;12.33;;;7.77;;
18689;SDS011;9782;52.930;15.562;2023-03-08T10:47:54;11.90;;;7.00;;
18689;SDS011;9782;52.930;15.562;2023-03-08T10:50:23;13.87;;;7.23;;
18689;SDS011;9782;52.930;15.562;2023-03-08T10:52:53;11.90;;;6.00;;
18689;SDS011;9782;52.930;15.562;2023-03-08T10:55:20;15.83;;;8.07;;
18689;SDS011;9782;52.930;15.562;2023-03-08T10:57:50;11.70;;;5.57;;
18689;SDS011;9782;52.930;15.562;2023-03-08T11:00:24;10.20;;;5.00;;
18689;SDS011;9782;52.930;15.562;2023-03-08T11:03:13;9.27;;;5.90;;
18689;SDS011;9782;52.930;15.562;2023-03-08T11:05:50;13.13;;;8.53;;
18689;SDS011;9782;52.930;15.562;2023-03-08T11:08:20;14.53;;;7.03;;
18689;SDS011;9782;52.930;15.562;2023-03-08T11:10:58;6.80;;;4.50;;
18689;SDS011;9782;52.930;15.562;2023-03-08T11:13:27;12.03;;;5.37;;
18689;SDS011;9782;52.930;15.562;2023-03-08T11:15:58;13.67;;;5.50;;
18689;SDS011;9782;52.930;15.562;2023-03-08T11:18:52;12.07;;;5.73;;
18689;SDS011;9782;52.930;15.562;2023-03-08T11:21:38;9.13;;;5.53;;
18689;SDS011;9782;52.930;15.562;2023-03-08T11:24:16;8.23;;;5.13;;
18689;SDS011;9782;52.930;15.562;2023-03-08T11:26:51;13.13;;;8.03;;
18689;SDS011;9782;52.930;15.562;2023-03-08T11:29:31;11.07;;;6.20;;
18689;SDS011;9782;52.930;15.562;2023-03-08T11:32:07;6.67;;;4.30;;
18689;SDS011;9782;52.930;15.562;2023-03-08T11:37:33;9.97;;;4.80;;
18689;SDS011;9782;52.930;15.562;2023-03-08T11:40:12;7.73;;;4.27;;
18689;SDS011;9782;52.930;15.562;2023-03-08T11:42:47;10.37;;;5.50;;
18689;SDS011;9782;52.930;15.562;2023-03-08T11:45:32;12.87;;;7.30;;
18689;SDS011;9782;52.930;15.562;2023-03-08T11:48:06;14.57;;;7.63;;
18689;SDS011;9782;52.930;15.562;2023-03-08T11:50:51;8.17;;;4.93;;
18689;SDS011;9782;52.930;15.562;2023-03-08T11:53:25;9.47;;;5.77;;
18689;SDS011;9782;52.930;15.562;2023-03-08T11:56:07;7.20;;;5.13;;
18689;SDS011;9782;52.930;15.562;2023-03-08T11:58:43;7.87;;;5.10;;
18689;SDS011;9782;52.930;15.562;2023-03-08T12:01:15;12.47;;;5.77;;
18689;SDS011;9782;52.930;15.562;2023-03-08T12:03:46;12.17;;;7.40;;
18689;SDS011;9782;52.930;15.562;2023-03-08T12:06:20;14.73;;;8.60;;
18689;SDS011;9782;52.930;15.562;2023-03-08T12:08:52;8.33;;;5.70;;
18689;SDS011;9782;52.930;15.562;2023-03-08T12:11:25;13.93;;;7.00;;
18689;SDS011;9782;52.930;15.562;2023-03-08T12:13:56;9.90;;;6.23;;
18689;SDS011;9782;52.930;15.562;2023-03-08T12:16:29;10.40;;;5.60;;
18689;SDS011;9782;52.930;15.562;2023-03-08T12:19:03;9.03;;;5.90;;
18689;SDS011;9782;52.930;15.562;2023-03-08T12:21:37;8.50;;;5.50;;
18689;SDS011;9782;52.930;15.562;2023-03-08T12:27:07;17.13;;;5.90;;
18689;SDS011;9782;52.930;15.562;2023-03-08T12:29:38;12.27;;;7.47;;
18689;SDS011;9782;52.930;15.562;2023-03-08T12:32:08;8.67;;;6.17;;
18689;SDS011;9782;52.930;15.562;2023-03-08T12:34:37;9.97;;;5.70;;
18689;SDS011;9782;52.930;15.562;2023-03-08T12:37:16;8.43;;;6.00;;
18689;SDS011;9782;52.930;15.562;2023-03-08T12:39:54;15.30;;;9.60;;
18689;SDS011;9782;52.930;15.562;2023-03-08T12:42:27;20.60;;;7.07;;
18689;SDS011;9782;52.930;15.562;2023-03-08T12:45:04;11.13;;;6.00;;
18689;SDS011;9782;52.930;15.562;2023-03-08T12:47:33;7.53;;;5.60;;
18689;SDS011;9782;52.930;15.562;2023-03-08T12:50:05;15.33;;;7.60;;
18689;SDS011;9782;52.930;15.562;2023-03-08T12:52:34;9.53;;;6.20;;
18689;SDS011;9782;52.930;15.562;2023-03-08T12:55:03;11.20;;;5.33;;
18689;SDS011;9782;52.930;15.562;2023-03-08T12:57:35;14.73;;;6.20;;
18689;SDS011;9782;52.930;15.562;2023-03-08T13:00:19;10.33;;;5.80;;
18689;SDS011;9782;52.930;15.562;2023-03-08T13:02:57;9.37;;;5.73;;
18689;SDS011;9782;52.930;15.562;2023-03-08T13:05:28;14.50;;;7.30;;
18689;SDS011;9782;52.930;15.562;2023-03-08T13:10:56;9.20;;;5.10;;
18689;SDS011;9782;52.930;15.562;2023-03-08T13:13:30;12.10;;;7.43;;
18689;SDS011;9782;52.930;15.562;2023-03-08T13:16:19;12.07;;;6.60;;
18689;SDS011;9782;52.930;15.562;2023-03-08T13:19:02;11.53;;;6.67;;
18689;SDS011;9782;52.930;15.562;2023-03-08T13:21:46;9.40;;;5.97;;
18689;SDS011;9782;52.930;15.562;2023-03-08T13:24:16;7.40;;;5.07;;
18689;SDS011;9782;52.930;15.562;2023-03-08T13:26:56;10.07;;;5.67;;
18689;SDS011;9782;52.930;15.562;2023-03-08T13:29:36;11.47;;;7.60;;
18689;SDS011;9782;52.930;15.562;2023-03-08T13:32:04;10.13;;;6.00;;
18689;SDS011;9782;52.930;15.562;2023-03-08T13:34:38;10.50;;;6.60;;
18689;SDS011;9782;52.930;15.562;2023-03-08T13:37:17;21.37;;;10.93;;
18689;SDS011;9782;52.930;15.562;2023-03-08T13:39:49;14.97;;;9.03;;
18689;SDS011;9782;52.930;15.562;2023-03-08T13:42:18;16.10;;;10.60;;
18689;SDS011;9782;52.930;15.562;2023-03-08T13:44:50;13.57;;;8.00;;
18689;SDS011;9782;52.930;15.562;2023-03-08T13:47:19;13.10;;;8.60;;
18689;SDS011;9782;52.930;15.562;2023-03-08T13:49:48;19.10;;;11.50;;
18689;SDS011;9782;52.930;15.562;2023-03-08T13:52:17;39.80;;;18.20;;
18689;SDS011;9782;52.930;15.562;2023-03-08T13:54:46;16.60;;;8.93;;
18689;SDS011;9782;52.930;15.562;2023-03-08T13:57:17;13.90;;;9.70;;
18689;SDS011;9782;52.930;15.562;2023-03-08T13:59:46;18.63;;;7.77;;
18689;SDS011;9782;52.930;15.562;2023-03-08T14:02:19;11.57;;;7.83;;
18689;SDS011;9782;52.930;15.562;2023-03-08T14:04:48;16.03;;;7.33;;
18689;SDS011;9782;52.930;15.562;2023-03-08T14:07:23;17.43;;;8.73;;
18689;SDS011;9782;52.930;15.562;2023-03-08T14:09:50;9.97;;;6.67;;
18689;SDS011;9782;52.930;15.562;2023-03-08T14:12:18;22.23;;;11.00;;
18689;SDS011;9782;52.930;15.562;2023-03-08T14:14:47;13.10;;;8.20;;
18689;SDS011;9782;52.930;15.562;2023-03-08T14:17:18;16.30;;;9.60;;
18689;SDS011;9782;52.930;15.562;2023-03-08T14:19:51;17.80;;;10.30;;
18689;SDS011;9782;52.930;15.562;2023-03-08T14:22:20;31.10;;;17.70;;
18689;SDS011;9782;52.930;15.562;2023-03-08T14:24:49;25.50;;;13.40;;
18689;SDS011;9782;52.930;15.562;2023-03-08T14:27:35;21.03;;;12.17;;
18689;SDS011;9782;52.930;15.562;2023-03-08T14:30:09;24.43;;;15.00;;
18689;SDS011;9782;52.930;15.562;2023-03-08T14:32:39;21.20;;;11.13;;
18689;SDS011;9782;52.930;15.562;2023-03-08T14:35:21;10.17;;;6.37;;
18689;SDS011;9782;52.930;15.562;2023-03-08T14:37:50;7.20;;;5.23;;
18689;SDS011;9782;52.930;15.562;2023-03-08T14:40:22;11.87;;;7.03;;
18689;SDS011;9782;52.930;15.562;2023-03-08T14:42:52;40.63;;;19.47;;
18689;SDS011;9782;52.930;15.562;2023-03-08T14:45:21;65.10;;;33.27;;
18689;SDS011;9782;52.930;15.562;2023-03-08T14:47:53;50.10;;;29.77;;
18689;SDS011;9782;52.930;15.562;2023-03-08T14:50:23;33.47;;;17.73;;
18689;SDS011;9782;52.930;15.562;2023-03-08T14:52:52;16.20;;;9.07;;
18689;SDS011;9782;52.930;15.562;2023-03-08T14:55:22;20.43;;;11.77;;
18689;SDS011;9782;52.930;15.562;2023-03-08T14:57:50;19.63;;;11.20;;